createdAt,value
2018-09-03T00:00:13.708Z,14.87
2018-09-03T00:02:48.036Z,14.07
2018-09-03T00:05:22.866Z,14.77
2018-09-03T00:07:57.599Z,14.33
2018-09-03T00:10:31.963Z,14.43
2018-09-03T00:13:07.017Z,15.37
2018-09-03T00:15:41.841Z,15.03
2018-09-03T00:18:16.603Z,14.50
2018-09-03T00:20:51.471Z,13.50
2018-09-03T00:23:26.131Z,13.60
2018-09-03T00:26:00.415Z,13.90
2018-09-03T00:28:34.859Z,13.53
2018-09-03T00:31:14.919Z,13.40
2018-09-03T00:33:54.540Z,13.07
2018-09-03T00:36:34.968Z,13.03
2018-09-03T00:39:15.129Z,13.60
2018-09-03T00:41:55.103Z,12.90
2018-09-03T00:44:34.943Z,13.20
2018-09-03T00:47:11.410Z,14.30
2018-09-03T00:49:46.160Z,13.80
2018-09-03T00:52:21.235Z,13.30
2018-09-03T00:54:55.775Z,12.90
2018-09-03T00:57:30.104Z,14.07
2018-09-03T01:00:04.732Z,15.07
2018-09-03T01:02:39.602Z,13.53
2018-09-03T01:05:14.176Z,13.53
2018-09-03T01:07:48.668Z,14.97
2018-09-03T01:10:23.471Z,14.87
2018-09-03T01:12:58.309Z,15.50
2018-09-03T01:15:32.615Z,14.47
2018-09-03T01:18:07.347Z,15.13
2018-09-03T01:20:42.068Z,14.43
2018-09-03T01:23:16.511Z,15.80
2018-09-03T01:25:50.911Z,15.10
2018-09-03T01:28:25.304Z,16.00
2018-09-03T01:30:59.712Z,15.10
2018-09-03T01:33:34.464Z,14.77
2018-09-03T01:36:08.975Z,14.73
2018-09-03T01:38:43.727Z,14.17
2018-09-03T01:41:19.359Z,14.70
2018-09-03T01:43:53.787Z,14.60
2018-09-03T01:46:28.296Z,13.13
2018-09-03T01:49:02.850Z,14.07
2018-09-03T01:51:37.632Z,13.70
2018-09-03T01:54:12.112Z,13.73
2018-09-03T01:56:46.576Z,13.97
2018-09-03T01:59:21.040Z,13.60
2018-09-03T02:01:55.529Z,13.83
2018-09-03T02:04:29.959Z,13.07
2018-09-03T02:07:04.475Z,13.67
2018-09-03T02:09:39.183Z,13.47
2018-09-03T02:12:15.327Z,13.23
2018-09-03T02:14:49.792Z,13.50
2018-09-03T02:17:24.324Z,14.03
2018-09-03T02:19:59.745Z,13.43
2018-09-03T02:22:34.075Z,13.47
2018-09-03T02:25:09.201Z,12.43
2018-09-03T02:27:43.691Z,13.10
2018-09-03T02:30:19.067Z,13.50
2018-09-03T02:32:54.016Z,12.97
2018-09-03T02:35:29.254Z,13.10
2018-09-03T02:38:04.046Z,13.50
2018-09-03T02:40:38.633Z,14.70
2018-09-03T02:43:13.176Z,15.50
2018-09-03T02:45:47.699Z,16.33
2018-09-03T02:48:22.256Z,15.90
2018-09-03T02:50:56.709Z,16.20
2018-09-03T02:53:31.367Z,16.43
2018-09-03T02:56:06.823Z,17.27
2018-09-03T02:58:41.596Z,17.50
2018-09-03T03:01:16.915Z,17.43
2018-09-03T03:03:51.879Z,17.80
2018-09-03T03:06:26.311Z,18.80
2018-09-03T03:09:01.007Z,18.10
2018-09-03T03:11:35.683Z,19.30
2018-09-03T03:14:10.315Z,18.13
2018-09-03T03:16:45.251Z,16.77
2018-09-03T03:19:20.967Z,18.17
2018-09-03T03:21:55.486Z,17.77
2018-09-03T03:24:29.895Z,18.50
2018-09-03T03:27:04.722Z,17.70
2018-09-03T03:29:39.053Z,18.80
2018-09-03T03:32:14.123Z,18.03
2018-09-03T03:34:49.246Z,16.80
2018-09-03T03:37:23.939Z,17.60
2018-09-03T03:39:59.200Z,17.33
2018-09-03T03:42:34.221Z,19.00
2018-09-03T03:45:09.503Z,19.43
2018-09-03T03:47:44.467Z,19.37
2018-09-03T03:50:19.420Z,21.03
2018-09-03T03:52:53.807Z,21.57
2018-09-03T03:55:28.678Z,21.57
2018-09-03T03:58:03.503Z,21.27
2018-09-03T04:00:38.074Z,22.27
2018-09-03T04:03:12.460Z,22.70
2018-09-03T04:05:46.803Z,23.43
2018-09-03T04:08:21.491Z,22.27
2018-09-03T04:10:56.110Z,21.87
2018-09-03T04:13:30.529Z,22.63
2018-09-03T04:16:05.513Z,22.23
2018-09-03T04:18:40.671Z,22.70
2018-09-03T04:21:15.011Z,21.53
2018-09-03T04:23:50.150Z,22.73
2018-09-03T04:26:24.896Z,22.53
2018-09-03T04:28:59.680Z,22.93
2018-09-03T04:31:34.144Z,23.37
2018-09-03T04:34:09.072Z,24.07
2018-09-03T04:36:43.855Z,23.70
2018-09-03T04:39:18.252Z,23.13
2018-09-03T04:41:53.204Z,22.87
2018-09-03T04:44:27.602Z,22.60
2018-09-03T04:47:02.532Z,22.63
2018-09-03T04:49:37.371Z,24.03
2018-09-03T04:52:12.161Z,23.57
2018-09-03T04:54:46.824Z,23.23
2018-09-03T04:57:21.412Z,22.90
2018-09-03T04:59:55.915Z,24.27
2018-09-03T05:02:30.426Z,23.60
2018-09-03T05:05:04.854Z,23.50
2018-09-03T05:07:39.888Z,22.93
2018-09-03T05:10:14.762Z,22.60
2018-09-03T05:12:50.207Z,24.50
2018-09-03T05:15:24.989Z,23.73
2018-09-03T05:17:59.778Z,23.80
2018-09-03T05:20:34.419Z,22.80
2018-09-03T05:23:09.298Z,22.80
2018-09-03T05:25:45.235Z,24.03
2018-09-03T05:28:20.036Z,23.43
2018-09-03T05:30:55.038Z,23.73
2018-09-03T05:33:29.588Z,24.00
2018-09-03T05:36:05.061Z,23.53
2018-09-03T05:38:39.388Z,23.67
2018-09-03T05:41:14.163Z,23.27
2018-09-03T05:43:48.838Z,25.90
2018-09-03T05:46:23.460Z,23.83
2018-09-03T05:48:58.496Z,29.10
2018-09-03T05:51:33.243Z,28.33
2018-09-03T05:54:08.188Z,25.70
2018-09-03T05:56:42.574Z,28.93
2018-09-03T05:59:17.428Z,29.63
2018-09-03T06:01:52.660Z,31.10
2018-09-03T06:04:27.187Z,30.00
2018-09-03T06:07:01.725Z,27.80
2018-09-03T06:09:36.279Z,32.53
2018-09-03T06:12:11.287Z,31.17
2018-09-03T06:14:45.676Z,28.93
2018-09-03T06:17:22.439Z,30.30
2018-09-03T06:19:56.772Z,30.27
2018-09-03T06:22:31.283Z,29.00
2018-09-03T06:25:06.285Z,29.63
2018-09-03T06:30:18.497Z,27.30
2018-09-03T06:32:53.086Z,26.63
2018-09-03T06:35:28.383Z,27.13
2018-09-03T06:38:03.214Z,25.97
2018-09-03T06:40:38.784Z,25.67
2018-09-03T06:43:13.421Z,25.83
2018-09-03T06:45:49.201Z,25.10
2018-09-03T06:48:26.630Z,26.47
2018-09-03T06:51:01.288Z,27.80
2018-09-03T06:53:36.297Z,27.73
2018-09-03T06:56:11.043Z,25.50
2018-09-03T06:58:46.377Z,26.57
2018-09-03T07:01:20.805Z,24.83
2018-09-03T07:03:55.983Z,26.93
2018-09-03T07:06:30.584Z,29.10
2018-09-03T07:09:08.415Z,26.00
2018-09-03T07:11:43.036Z,23.07
2018-09-03T07:14:17.580Z,25.27
2018-09-03T07:16:52.054Z,23.70
2018-09-03T07:19:26.645Z,23.77
2018-09-03T07:22:01.003Z,25.43
2018-09-03T07:24:37.010Z,23.13
2018-09-03T07:27:12.550Z,23.03
2018-09-03T07:29:47.526Z,23.63
2018-09-03T07:32:22.078Z,23.17
2018-09-03T07:34:57.071Z,23.33
2018-09-03T07:37:31.539Z,22.77
2018-09-03T07:40:07.264Z,23.20
2018-09-03T07:42:41.861Z,21.40
2018-09-03T07:45:16.988Z,22.53
2018-09-03T07:47:51.551Z,22.20
2018-09-03T07:50:26.712Z,21.37
2018-09-03T07:53:01.163Z,22.17
2018-09-03T07:55:36.234Z,22.00
2018-09-03T07:58:11.639Z,23.10
2018-09-03T08:00:46.808Z,21.10
2018-09-03T08:03:21.323Z,22.30
2018-09-03T08:05:55.768Z,22.17
2018-09-03T08:08:30.890Z,21.37
2018-09-03T08:11:05.716Z,22.83
2018-09-03T08:13:42.214Z,23.10
2018-09-03T08:16:16.993Z,20.97
2018-09-03T08:18:51.707Z,19.07
2018-09-03T08:21:26.811Z,18.20
2018-09-03T08:24:01.454Z,19.00
2018-09-03T08:26:36.365Z,16.93
2018-09-03T08:29:13.036Z,16.60
2018-09-03T08:31:47.748Z,16.83
2018-09-03T08:34:22.395Z,16.33
2018-09-03T08:36:56.957Z,15.37
2018-09-03T08:39:31.631Z,14.73
2018-09-03T08:42:06.307Z,13.40
2018-09-03T08:44:41.157Z,14.17
2018-09-03T08:47:15.750Z,14.60
2018-09-03T08:49:50.732Z,14.67
2018-09-03T08:52:25.680Z,14.70
2018-09-03T08:55:00.211Z,14.73
2018-09-03T08:57:34.792Z,13.63
2018-09-03T09:00:09.555Z,12.60
2018-09-03T09:02:44.095Z,12.10
2018-09-03T09:05:19.027Z,11.37
2018-09-03T09:07:53.614Z,11.97
2018-09-03T09:10:28.077Z,13.50
2018-09-03T09:13:03.183Z,12.40
2018-09-03T09:15:37.739Z,12.00
2018-09-03T09:18:12.915Z,12.47
2018-09-03T09:20:47.542Z,13.67
2018-09-03T09:23:22.032Z,14.80
2018-09-03T09:25:57.329Z,13.27
2018-09-03T09:28:32.336Z,12.87
2018-09-03T09:31:12.992Z,12.90
2018-09-03T09:34:00.439Z,12.57
2018-09-03T09:36:36.161Z,13.20
2018-09-03T09:39:11.586Z,12.13
2018-09-03T09:41:46.539Z,11.13
2018-09-03T09:44:21.244Z,12.57
2018-09-03T09:46:55.532Z,12.40
2018-09-03T09:49:30.369Z,11.13
2018-09-03T09:52:05.312Z,11.33
2018-09-03T09:54:39.596Z,10.80
2018-09-03T09:57:14.212Z,12.20
2018-09-03T09:59:50.871Z,11.43
2018-09-03T10:02:27.790Z,9.80
2018-09-03T10:05:02.244Z,9.77
2018-09-03T10:07:37.087Z,8.57
2018-09-03T10:10:11.439Z,8.60
2018-09-03T10:12:46.681Z,7.70
2018-09-03T10:15:21.188Z,7.70
2018-09-03T10:17:55.619Z,6.80
2018-09-03T10:20:29.879Z,8.00
2018-09-03T10:23:05.410Z,7.20
2018-09-03T10:25:40.198Z,6.93
2018-09-03T10:28:14.543Z,6.93
2018-09-03T10:30:52.173Z,7.37
2018-09-03T10:33:26.744Z,7.43
2018-09-03T10:36:01.348Z,7.27
2018-09-03T10:38:36.586Z,6.30
2018-09-03T10:41:11.144Z,6.37
2018-09-03T10:43:45.591Z,5.93
2018-09-03T10:46:20.409Z,6.10
2018-09-03T10:48:55.140Z,6.30
2018-09-03T10:51:29.649Z,6.57
2018-09-03T10:54:04.941Z,5.33
2018-09-03T10:56:39.747Z,5.67
2018-09-03T10:59:14.562Z,5.23
2018-09-03T11:01:49.792Z,5.30
2018-09-03T11:04:24.446Z,4.93
2018-09-03T11:06:59.223Z,5.80
2018-09-03T11:09:33.610Z,5.90
2018-09-03T11:12:08.188Z,4.77
2018-09-03T11:14:42.848Z,4.90
2018-09-03T11:17:17.879Z,3.80
2018-09-03T11:19:55.189Z,4.17
2018-09-03T11:22:30.063Z,3.40
2018-09-03T11:25:05.272Z,3.70
2018-09-03T11:27:40.572Z,3.57
2018-09-03T11:30:14.973Z,4.30
2018-09-03T11:32:54.732Z,4.03
2018-09-03T11:35:29.336Z,4.10
2018-09-03T11:38:03.656Z,4.27
2018-09-03T11:40:38.436Z,3.20
2018-09-03T11:43:12.715Z,3.37
2018-09-03T11:45:47.272Z,3.20
2018-09-03T11:48:21.788Z,3.40
2018-09-03T11:50:56.535Z,3.50
2018-09-03T11:53:31.244Z,3.00
2018-09-03T11:56:05.968Z,3.33
2018-09-03T11:58:40.424Z,3.00
2018-09-03T12:01:15.361Z,3.30
2018-09-03T12:03:49.784Z,3.20
2018-09-03T12:06:24.845Z,2.87
2018-09-03T12:08:59.691Z,3.03
2018-09-03T12:11:34.569Z,3.37
2018-09-03T12:14:13.215Z,2.80
2018-09-03T12:16:48.007Z,3.10
2018-09-03T12:19:22.604Z,2.70
2018-09-03T12:21:57.099Z,2.70
2018-09-03T12:24:31.763Z,2.93
2018-09-03T12:27:06.610Z,2.90
2018-09-03T12:29:40.928Z,2.70
2018-09-03T12:32:16.047Z,2.57
2018-09-03T12:34:50.488Z,3.00
2018-09-03T12:37:24.920Z,2.87
2018-09-03T12:39:59.544Z,2.53
2018-09-03T12:42:34.411Z,2.60
2018-09-03T12:45:09.320Z,2.50
2018-09-03T12:47:44.242Z,2.30
2018-09-03T12:50:18.999Z,2.70
2018-09-03T12:52:53.517Z,2.73
2018-09-03T12:55:28.263Z,2.63
2018-09-03T12:58:02.843Z,2.67
2018-09-03T13:00:38.676Z,3.13
2018-09-03T13:03:12.498Z,2.70
2018-09-03T13:05:47.623Z,2.53
2018-09-03T13:08:22.159Z,2.70
2018-09-03T13:10:57.152Z,2.70
2018-09-03T13:13:32.202Z,2.90
2018-09-03T13:16:07.171Z,2.60
2018-09-03T13:18:42.311Z,2.80
2018-09-03T13:21:17.663Z,2.70
2018-09-03T13:23:52.520Z,2.70
2018-09-03T13:26:27.369Z,2.53
2018-09-03T13:29:01.684Z,2.47
2018-09-03T13:31:36.927Z,2.27
2018-09-03T13:34:11.484Z,2.40
2018-09-03T13:36:46.220Z,3.07
2018-09-03T13:39:20.743Z,3.37
2018-09-03T13:41:55.752Z,2.60
2018-09-03T13:44:30.358Z,2.77
2018-09-03T13:47:05.023Z,2.97
2018-09-03T13:49:39.731Z,3.30
2018-09-03T13:52:14.243Z,3.00
2018-09-03T13:54:48.850Z,2.90
2018-09-03T13:57:23.695Z,3.20
2018-09-03T13:59:58.611Z,2.90
2018-09-03T14:02:32.947Z,3.30
2018-09-03T14:05:07.851Z,3.00
2018-09-03T14:07:42.832Z,3.00
2018-09-03T14:10:17.564Z,2.90
2018-09-03T14:12:52.319Z,3.10
2018-09-03T14:15:27.375Z,2.70
2018-09-03T14:18:01.822Z,2.67
2018-09-03T14:20:37.068Z,2.50
2018-09-03T14:23:12.119Z,2.50
2018-09-03T14:25:46.388Z,2.40
2018-09-03T14:28:21.236Z,2.57
2018-09-03T14:30:56.196Z,2.17
2018-09-03T14:33:31.135Z,2.50
2018-09-03T14:36:06.601Z,2.30
2018-09-03T14:38:41.314Z,2.50
2018-09-03T14:41:15.799Z,2.60
2018-09-03T14:43:50.551Z,2.60
2018-09-03T14:46:25.587Z,2.70
2018-09-03T14:49:02.659Z,2.30
2018-09-03T14:51:39.152Z,2.60
2018-09-03T14:54:13.552Z,2.90
2018-09-03T14:56:47.935Z,2.30
2018-09-03T14:59:22.304Z,2.40
2018-09-03T15:02:03.251Z,2.77
2018-09-03T15:04:38.432Z,2.93
2018-09-03T15:07:13.063Z,2.83
2018-09-03T15:09:50.515Z,2.93
2018-09-03T15:12:25.379Z,2.50
2018-09-03T15:15:00.215Z,3.10
2018-09-03T15:17:35.556Z,3.10
2018-09-03T15:20:10.303Z,3.27
2018-09-03T15:22:44.827Z,3.20
2018-09-03T15:25:19.423Z,3.13
2018-09-03T15:27:53.867Z,3.20
2018-09-03T15:30:29.061Z,2.90
2018-09-03T15:33:04.128Z,2.83
2018-09-03T15:35:38.608Z,3.27
2018-09-03T15:38:13.427Z,3.10
2018-09-03T15:40:48.136Z,2.90
2018-09-03T15:43:23.263Z,3.00
2018-09-03T15:45:57.884Z,3.20
2018-09-03T15:48:32.381Z,3.13
2018-09-03T15:51:07.676Z,2.93
2018-09-03T15:53:42.115Z,2.80
2018-09-03T15:56:17.164Z,3.37
2018-09-03T15:58:51.685Z,3.03
2018-09-03T16:01:26.496Z,3.00
2018-09-03T16:04:01.696Z,3.30
2018-09-03T16:06:36.903Z,3.60
2018-09-03T16:09:12.046Z,3.10
2018-09-03T16:11:46.691Z,3.17
2018-09-03T16:14:21.498Z,3.40
2018-09-03T16:16:55.779Z,3.53
2018-09-03T16:19:30.404Z,3.10
2018-09-03T16:22:04.745Z,3.30
2018-09-03T16:24:39.200Z,3.00
2018-09-03T16:27:13.684Z,3.20
2018-09-03T16:29:48.507Z,3.30
2018-09-03T16:32:23.375Z,3.20
2018-09-03T16:34:57.948Z,3.30
2018-09-03T16:37:32.213Z,3.07
2018-09-03T16:40:08.382Z,3.60
2018-09-03T16:42:42.842Z,3.90
2018-09-03T16:45:17.860Z,3.90
2018-09-03T16:47:52.683Z,4.17
2018-09-03T16:50:27.395Z,3.50
2018-09-03T16:53:02.275Z,3.47
2018-09-03T16:55:37.208Z,4.00
2018-09-03T16:58:12.256Z,4.03
2018-09-03T17:00:46.900Z,4.37
2018-09-03T17:03:21.726Z,3.87
2018-09-03T17:05:56.156Z,3.87
2018-09-03T17:08:31.140Z,3.60
2018-09-03T17:11:06.414Z,3.97
2018-09-03T17:13:41.276Z,3.73
2018-09-03T17:16:15.748Z,4.47
2018-09-03T17:18:50.080Z,4.27
2018-09-03T17:21:25.157Z,4.03
2018-09-03T17:24:00.333Z,4.10
2018-09-03T17:26:35.350Z,4.30
2018-09-03T17:29:10.144Z,4.83
2018-09-03T17:31:44.564Z,4.40
2018-09-03T17:34:19.015Z,4.57
2018-09-03T17:36:54.194Z,4.83
2018-09-03T17:39:28.784Z,3.87
2018-09-03T17:42:03.771Z,4.07
2018-09-03T17:44:38.211Z,4.40
2018-09-03T17:47:12.532Z,4.03
2018-09-03T17:49:47.396Z,4.67
2018-09-03T17:52:22.115Z,4.20
2018-09-03T17:54:56.947Z,4.20
2018-09-03T17:57:31.731Z,3.43
2018-09-03T18:00:06.102Z,3.90
2018-09-03T18:02:40.999Z,3.67
2018-09-03T18:05:15.422Z,3.77
2018-09-03T18:07:49.691Z,3.77
2018-09-03T18:10:23.985Z,4.07
2018-09-03T18:12:58.287Z,3.50
2018-09-03T18:15:32.767Z,3.67
2018-09-03T18:18:07.123Z,3.60
2018-09-03T18:20:42.184Z,3.73
2018-09-03T18:23:16.827Z,3.53
2018-09-03T18:25:51.731Z,3.70
2018-09-03T18:28:26.192Z,4.13
2018-09-03T18:31:01.098Z,4.20
2018-09-03T18:33:35.824Z,4.10
2018-09-03T18:36:10.535Z,3.73
2018-09-03T18:38:45.082Z,4.10
2018-09-03T18:41:19.553Z,3.90
2018-09-03T18:43:54.672Z,4.10
2018-09-03T18:46:31.423Z,3.80
2018-09-03T18:49:06.007Z,4.33
2018-09-03T18:51:40.463Z,3.90
2018-09-03T18:54:15.102Z,4.10
2018-09-03T18:56:49.509Z,4.20
2018-09-03T18:59:23.867Z,4.07
2018-09-03T19:01:59.931Z,4.40
2018-09-03T19:04:34.435Z,4.37
2018-09-03T19:07:09.560Z,4.40
2018-09-03T19:09:44.038Z,4.60
2018-09-03T19:12:19.223Z,4.70
2018-09-03T19:14:53.838Z,5.13
2018-09-03T19:17:28.645Z,5.70
2018-09-03T19:20:05.596Z,10.73
2018-09-03T19:22:41.483Z,11.33
2018-09-03T19:25:16.102Z,11.83
2018-09-03T19:27:51.106Z,12.33
2018-09-03T19:30:25.679Z,13.07
2018-09-03T19:33:00.031Z,12.63
2018-09-03T19:35:34.838Z,12.40
2018-09-03T19:38:09.871Z,12.50
2018-09-03T19:40:44.688Z,12.67
2018-09-03T19:43:18.988Z,11.90
2018-09-03T19:45:53.311Z,12.37
2018-09-03T19:48:28.480Z,12.23
2018-09-03T19:51:03.243Z,11.57
2018-09-03T19:53:40.925Z,10.43
2018-09-03T19:56:17.386Z,9.00
2018-09-03T19:58:56.673Z,7.40
2018-09-03T20:01:34.241Z,6.77
2018-09-03T20:04:08.600Z,6.70
2018-09-03T20:06:43.383Z,6.23
2018-09-03T20:09:17.800Z,7.10
2018-09-03T20:11:52.518Z,6.83
2018-09-03T20:14:26.991Z,7.73
2018-09-03T20:17:01.981Z,7.27
2018-09-03T20:19:36.680Z,7.80
2018-09-03T20:22:13.124Z,8.23
2018-09-03T20:24:47.514Z,7.00
2018-09-03T20:27:21.939Z,7.53
2018-09-03T20:29:56.621Z,8.03
2018-09-03T20:32:31.439Z,10.23
2018-09-03T20:35:06.072Z,9.87
2018-09-03T20:37:40.615Z,12.87
2018-09-03T20:40:15.360Z,17.37
2018-09-03T20:42:50.122Z,16.73
2018-09-03T20:45:25.336Z,16.83
2018-09-03T20:47:59.907Z,16.23
2018-09-03T20:50:34.247Z,16.53
2018-09-03T20:53:08.911Z,18.07
2018-09-03T20:55:43.622Z,16.13
2018-09-03T20:58:18.252Z,19.77
2018-09-03T21:00:52.744Z,17.67
2018-09-03T21:03:27.384Z,19.70
2018-09-03T21:06:01.931Z,19.30
2018-09-03T21:08:36.283Z,18.23
2018-09-03T21:11:10.750Z,18.83
2018-09-03T21:13:45.435Z,18.00
2018-09-03T21:16:20.103Z,20.57
2018-09-03T21:18:54.610Z,21.57
2018-09-03T21:21:29.111Z,20.43
2018-09-03T21:24:03.949Z,17.90
2018-09-03T21:26:38.424Z,19.67
2018-09-03T21:29:12.764Z,20.73
2018-09-03T21:31:47.094Z,19.20
2018-09-03T21:34:21.451Z,20.00
2018-09-03T21:36:56.244Z,19.87
2018-09-03T21:39:31.419Z,20.07
2018-09-03T21:42:06.492Z,19.00
2018-09-03T21:44:41.571Z,19.67
2018-09-03T21:47:16.500Z,20.03
2018-09-03T21:49:51.671Z,19.17
2018-09-03T21:52:26.068Z,17.90
2018-09-03T21:55:00.787Z,19.47
2018-09-03T21:57:35.404Z,19.67
2018-09-03T22:00:10.696Z,19.17
2018-09-03T22:02:45.419Z,18.23
2018-09-03T22:05:19.835Z,18.07
2018-09-03T22:07:54.664Z,16.10
2018-09-03T22:10:29.460Z,14.23
2018-09-03T22:13:03.848Z,12.70
2018-09-03T22:15:39.787Z,11.00
2018-09-03T22:18:14.272Z,11.07
2018-09-03T22:20:48.624Z,11.67
2018-09-03T22:23:23.300Z,11.43
2018-09-03T22:25:57.988Z,11.50
2018-09-03T22:28:32.435Z,12.10
2018-09-03T22:31:07.252Z,11.40
2018-09-03T22:33:41.747Z,11.23
2018-09-03T22:36:16.133Z,11.20
2018-09-03T22:38:51.016Z,11.07
2018-09-03T22:41:26.457Z,12.87
2018-09-03T22:44:01.315Z,12.10
2018-09-03T22:46:38.361Z,12.20
2018-09-03T22:49:13.392Z,11.77
2018-09-03T22:51:47.811Z,14.33
2018-09-03T22:54:22.541Z,13.43
2018-09-03T22:56:57.040Z,12.10
2018-09-03T22:59:31.626Z,13.17
2018-09-03T23:02:06.699Z,12.07
2018-09-03T23:04:41.436Z,12.53
2018-09-03T23:07:16.127Z,12.73
2018-09-03T23:09:50.795Z,12.40
2018-09-03T23:12:25.191Z,12.80
2018-09-03T23:14:59.804Z,13.50
2018-09-03T23:17:35.387Z,12.80
2018-09-03T23:20:10.119Z,12.87
2018-09-03T23:22:45.047Z,13.17
2018-09-03T23:25:19.907Z,12.37
2018-09-03T23:27:54.685Z,12.20
2018-09-03T23:30:29.031Z,12.13
2018-09-03T23:33:03.938Z,12.30
2018-09-03T23:35:38.415Z,11.90
2018-09-03T23:38:13.127Z,13.47
2018-09-03T23:40:47.695Z,14.13
2018-09-03T23:43:22.560Z,14.00
2018-09-03T23:45:57.416Z,13.90
2018-09-03T23:48:31.762Z,16.17
2018-09-03T23:51:06.493Z,18.33
2018-09-03T23:53:40.948Z,22.50
2018-09-03T23:56:15.692Z,19.67
2018-09-03T23:58:51.008Z,18.93
